createdAt,value
2019-03-27T00:01:16.369Z,39.33
2019-03-27T00:03:48.923Z,38.77
2019-03-27T00:06:21.962Z,38.61
2019-03-27T00:08:53.855Z,38.50
2019-03-27T00:11:29.778Z,38.33
2019-03-27T00:14:03.831Z,38.17
2019-03-27T00:16:37.761Z,38.29
2019-03-27T00:19:09.260Z,38.03
2019-03-27T00:21:40.138Z,38.19
2019-03-27T00:24:12.912Z,38.18
2019-03-27T00:26:47.384Z,38.16
2019-03-27T00:29:18.942Z,38.37
2019-03-27T00:31:49.813Z,38.16
2019-03-27T00:34:24.113Z,38.08
2019-03-27T00:36:56.962Z,38.33
2019-03-27T00:39:29.781Z,38.34
2019-03-27T00:42:02.797Z,38.18
2019-03-27T00:44:34.574Z,38.39
2019-03-27T00:47:07.214Z,38.65
2019-03-27T00:49:39.282Z,38.68
2019-03-27T00:52:11.377Z,38.49
2019-03-27T00:54:44.167Z,38.69
2019-03-27T00:57:18.087Z,38.58
2019-03-27T00:59:49.607Z,38.51
2019-03-27T01:02:22.786Z,38.54
2019-03-27T01:04:56.322Z,38.36
2019-03-27T01:07:29.344Z,38.47
2019-03-27T01:10:02.628Z,38.44
2019-03-27T01:12:37.866Z,38.49
2019-03-27T01:15:14.518Z,38.84
2019-03-27T01:17:50.978Z,38.87
2019-03-27T01:20:23.536Z,38.55
2019-03-27T01:22:55.977Z,38.65
2019-03-27T01:25:28.015Z,38.71
2019-03-27T01:28:05.916Z,38.54
2019-03-27T01:30:40.868Z,38.56
2019-03-27T01:33:14.412Z,38.35
2019-03-27T01:35:45.803Z,38.47
2019-03-27T01:38:21.091Z,38.57
2019-03-27T01:40:56.950Z,38.53
2019-03-27T01:43:28.530Z,38.42
2019-03-27T01:46:00.927Z,38.31
2019-03-27T01:48:34.975Z,38.79
2019-03-27T01:51:06.778Z,38.37
2019-03-27T01:53:38.533Z,38.36
2019-03-27T01:56:11.111Z,38.54
2019-03-27T01:58:43.467Z,38.45
2019-03-27T02:01:14.198Z,38.29
2019-03-27T02:03:45.079Z,38.53
2019-03-27T02:06:17.427Z,38.55
2019-03-27T02:08:50.526Z,38.43
2019-03-27T02:11:23.622Z,38.38
2019-03-27T02:13:55.746Z,38.85
2019-03-27T02:16:27.887Z,38.96
2019-03-27T02:19:01.362Z,39.03
2019-03-27T02:21:32.886Z,39.38
2019-03-27T02:24:05.204Z,39.28
2019-03-27T02:26:37.924Z,39.15
2019-03-27T02:29:10.673Z,39.14
2019-03-27T02:31:42.866Z,39.36
2019-03-27T02:34:19.131Z,39.15
2019-03-27T02:37:00.050Z,39.23
2019-03-27T02:39:35.992Z,39.30
2019-03-27T02:42:10.537Z,39.25
2019-03-27T02:44:43.761Z,39.33
2019-03-27T02:47:15.758Z,39.39
2019-03-27T02:49:53.309Z,39.23
2019-03-27T02:52:26.488Z,39.60
2019-03-27T02:55:07.640Z,39.57
2019-03-27T02:57:47.641Z,40.28
2019-03-27T03:00:25.780Z,40.00
2019-03-27T03:03:03.221Z,39.98
2019-03-27T03:05:39.004Z,39.94
2019-03-27T03:08:11.841Z,39.87
2019-03-27T03:10:48.322Z,40.02
2019-03-27T03:13:25.305Z,40.00
2019-03-27T03:15:58.097Z,40.18
2019-03-27T03:18:31.200Z,40.13
2019-03-27T03:21:06.810Z,40.12
2019-03-27T03:23:39.961Z,40.11
2019-03-27T03:26:11.701Z,40.02
2019-03-27T03:28:42.938Z,40.04
2019-03-27T03:31:16.187Z,40.25
2019-03-27T03:33:47.496Z,40.29
2019-03-27T03:36:23.922Z,40.35
2019-03-27T03:38:58.226Z,40.48
2019-03-27T03:41:31.973Z,40.43
2019-03-27T03:44:05.652Z,40.58
2019-03-27T03:46:39.895Z,40.58
2019-03-27T03:49:11.896Z,41.02
2019-03-27T03:51:44.726Z,40.73
2019-03-27T03:54:16.316Z,40.67
2019-03-27T03:56:52.652Z,40.71
2019-03-27T03:59:28.922Z,40.81
2019-03-27T04:02:07.644Z,40.68
2019-03-27T04:04:45.777Z,40.75
2019-03-27T04:07:19.143Z,40.84
2019-03-27T04:09:53.033Z,40.83
2019-03-27T04:12:27.331Z,40.91
2019-03-27T04:15:02.505Z,41.86
2019-03-27T04:17:35.449Z,41.79
2019-03-27T04:20:07.926Z,41.45
2019-03-27T04:22:39.070Z,41.39
2019-03-27T04:25:11.019Z,41.87
2019-03-27T04:27:42.210Z,41.44
2019-03-27T04:30:13.083Z,41.60
2019-03-27T04:32:45.192Z,41.46
2019-03-27T04:35:19.860Z,42.17
2019-03-27T04:37:53.604Z,41.88
2019-03-27T04:40:25.593Z,41.64
2019-03-27T04:42:57.185Z,41.72
2019-03-27T04:45:30.487Z,41.81
2019-03-27T04:48:02.913Z,41.85
2019-03-27T04:50:34.821Z,42.22
2019-03-27T04:53:05.899Z,42.09
2019-03-27T04:55:38.703Z,42.03
2019-03-27T04:58:09.610Z,42.15
2019-03-27T05:00:40.873Z,42.05
2019-03-27T05:03:13.998Z,42.24
2019-03-27T05:05:46.725Z,42.16
2019-03-27T05:08:17.750Z,42.26
2019-03-27T05:10:48.851Z,42.54
2019-03-27T05:13:20.172Z,42.83
2019-03-27T05:15:51.830Z,42.70
2019-03-27T05:18:23.902Z,42.53
2019-03-27T05:20:55.018Z,42.74
2019-03-27T05:23:26.776Z,42.93
2019-03-27T05:25:57.956Z,43.08
2019-03-27T05:28:29.548Z,42.91
2019-03-27T05:31:00.648Z,42.91
2019-03-27T05:33:34.741Z,42.86
2019-03-27T05:36:06.508Z,42.87
2019-03-27T05:38:41.681Z,42.92
2019-03-27T05:41:16.452Z,42.93
2019-03-27T05:43:49.122Z,43.03
2019-03-27T05:46:26.466Z,42.97
2019-03-27T05:49:06.729Z,43.40
2019-03-27T05:51:38.674Z,43.30
2019-03-27T05:54:13.621Z,43.55
2019-03-27T05:56:47.279Z,43.93
2019-03-27T05:59:22.789Z,43.80
2019-03-27T06:01:56.509Z,44.11
2019-03-27T06:04:29.666Z,43.82
2019-03-27T06:07:03.757Z,43.71
2019-03-27T06:09:35.228Z,43.57
2019-03-27T06:12:06.269Z,43.85
2019-03-27T06:14:37.236Z,43.65
2019-03-27T06:17:07.919Z,43.95
2019-03-27T06:19:39.160Z,44.64
2019-03-27T06:22:10.011Z,44.09
2019-03-27T06:24:40.732Z,43.62
2019-03-27T06:27:11.423Z,43.52
2019-03-27T06:29:43.766Z,43.53
2019-03-27T06:32:14.488Z,43.48
2019-03-27T06:34:46.577Z,43.41
2019-03-27T06:37:19.056Z,43.45
2019-03-27T06:39:50.554Z,43.81
2019-03-27T06:42:21.248Z,43.75
2019-03-27T06:44:51.975Z,43.88
2019-03-27T06:47:23.801Z,43.74
2019-03-27T06:49:57.433Z,43.71
2019-03-27T06:52:28.153Z,43.43
2019-03-27T06:54:59.328Z,43.64
2019-03-27T06:57:30.037Z,44.29
2019-03-27T07:00:01.303Z,43.58
2019-03-27T07:02:32.342Z,43.54
2019-03-27T07:05:03.912Z,43.48
2019-03-27T07:07:34.620Z,43.54
2019-03-27T07:10:06.486Z,43.62
2019-03-27T07:12:37.310Z,43.64
2019-03-27T07:15:08.764Z,43.32
2019-03-27T07:17:39.470Z,43.36
2019-03-27T07:20:11.391Z,43.35
2019-03-27T07:22:42.119Z,43.03
2019-03-27T07:25:12.972Z,42.93
2019-03-27T07:27:43.670Z,42.66
2019-03-27T07:30:15.312Z,42.63
2019-03-27T07:32:46.010Z,42.99
2019-03-27T07:35:18.056Z,42.82
2019-03-27T07:37:48.777Z,42.60
2019-03-27T07:40:20.148Z,42.61
2019-03-27T07:42:50.856Z,42.67
2019-03-27T07:45:21.603Z,42.29
2019-03-27T07:47:53.319Z,42.67
2019-03-27T07:50:25.738Z,42.97
2019-03-27T07:52:56.463Z,43.27
2019-03-27T07:55:27.321Z,44.06
2019-03-27T07:57:58.027Z,44.24
2019-03-27T08:00:29.324Z,44.74
2019-03-27T08:03:00.045Z,44.27
2019-03-27T08:05:32.208Z,44.11
2019-03-27T08:08:02.922Z,44.43
2019-03-27T08:10:34.184Z,43.83
2019-03-27T08:13:04.916Z,43.53
2019-03-27T08:15:35.760Z,43.60
2019-03-27T08:18:06.615Z,43.18
2019-03-27T08:20:39.072Z,43.02
2019-03-27T08:23:09.862Z,44.12
2019-03-27T08:25:40.602Z,43.05
2019-03-27T08:28:11.304Z,43.15
2019-03-27T08:30:42.577Z,42.65
2019-03-27T08:33:13.274Z,42.38
2019-03-27T08:35:45.241Z,42.38
2019-03-27T08:38:15.967Z,42.49
2019-03-27T08:40:47.308Z,42.94
2019-03-27T08:43:21.392Z,42.91
2019-03-27T08:45:50.577Z,43.16
2019-03-27T08:48:22.374Z,42.53
2019-03-27T08:50:54.056Z,43.02
2019-03-27T08:53:24.781Z,42.43
2019-03-27T08:55:55.618Z,41.94
2019-03-27T08:58:26.350Z,43.28
2019-03-27T09:00:57.599Z,42.86
2019-03-27T09:03:28.317Z,42.12
2019-03-27T09:05:59.868Z,40.97
2019-03-27T09:08:30.664Z,41.45
2019-03-27T09:11:04.471Z,40.82
2019-03-27T09:13:34.284Z,41.31
2019-03-27T09:16:05.014Z,40.49
2019-03-27T09:18:36.063Z,40.88
2019-03-27T09:21:08.106Z,39.92
2019-03-27T09:23:39.217Z,39.91
2019-03-27T09:26:10.386Z,39.30
2019-03-27T09:28:41.105Z,39.12
2019-03-27T09:31:13.798Z,38.34
2019-03-27T09:33:44.506Z,38.29
2019-03-27T09:36:16.705Z,37.87
2019-03-27T09:38:47.390Z,37.45
2019-03-27T09:41:21.310Z,36.82
2019-03-27T09:43:51.190Z,36.43
2019-03-27T09:46:22.039Z,36.02
2019-03-27T09:48:53.345Z,36.33
2019-03-27T09:51:25.777Z,35.48
2019-03-27T09:53:56.473Z,35.39
2019-03-27T09:56:27.227Z,35.07
2019-03-27T09:58:58.022Z,36.03
2019-03-27T10:01:29.399Z,35.07
2019-03-27T10:04:00.516Z,34.99
2019-03-27T10:06:31.878Z,35.73
2019-03-27T10:09:03.211Z,35.10
2019-03-27T10:11:34.375Z,33.98
2019-03-27T10:14:05.601Z,32.76
2019-03-27T10:16:36.427Z,31.47
2019-03-27T10:19:07.163Z,30.93
2019-03-27T10:21:39.267Z,31.87
2019-03-27T10:24:09.964Z,32.43
2019-03-27T10:26:42.812Z,32.82
2019-03-27T10:29:13.702Z,31.53
2019-03-27T10:31:44.441Z,32.07
2019-03-27T10:34:15.194Z,31.58
2019-03-27T10:36:46.961Z,32.37
2019-03-27T10:39:17.684Z,33.10
2019-03-27T10:41:48.425Z,33.18
2019-03-27T10:44:19.144Z,33.14
2019-03-27T10:46:50.411Z,33.50
2019-03-27T10:49:22.604Z,33.76
2019-03-27T10:51:54.652Z,33.49
2019-03-27T10:54:25.407Z,33.85
2019-03-27T10:56:56.959Z,33.53
2019-03-27T10:59:27.650Z,32.61
2019-03-27T11:01:58.403Z,32.58
2019-03-27T11:04:29.115Z,32.71
2019-03-27T11:07:01.800Z,32.17
2019-03-27T11:09:32.635Z,31.49
2019-03-27T11:12:03.403Z,31.42
2019-03-27T11:14:38.137Z,31.08
2019-03-27T11:17:06.952Z,30.85
2019-03-27T11:19:37.655Z,30.73
2019-03-27T11:22:09.725Z,30.50
2019-03-27T11:24:40.433Z,30.75
2019-03-27T11:27:12.121Z,30.21
2019-03-27T11:29:42.830Z,30.59
2019-03-27T11:32:13.670Z,28.87
2019-03-27T11:34:44.407Z,29.55
2019-03-27T11:37:16.946Z,29.28
2019-03-27T11:39:47.643Z,28.52
2019-03-27T11:42:18.417Z,27.34
2019-03-27T11:44:49.109Z,26.87
2019-03-27T11:47:20.358Z,28.04
2019-03-27T11:49:52.386Z,27.49
2019-03-27T11:52:24.171Z,27.49
2019-03-27T11:54:54.859Z,27.65
2019-03-27T11:57:26.462Z,27.56
2019-03-27T11:59:57.154Z,28.45
2019-03-27T12:02:27.870Z,27.72
2019-03-27T12:04:58.575Z,28.11
2019-03-27T12:07:32.362Z,28.42
2019-03-27T12:10:04.614Z,28.49
2019-03-27T12:12:35.351Z,28.78
2019-03-27T12:15:07.744Z,30.20
2019-03-27T12:17:39.010Z,29.30
2019-03-27T12:20:09.918Z,30.37
2019-03-27T12:22:41.948Z,30.18
2019-03-27T12:25:12.658Z,30.38
2019-03-27T12:27:44.236Z,30.41
2019-03-27T12:30:15.314Z,30.36
2019-03-27T12:32:46.032Z,30.17
2019-03-27T12:35:16.766Z,29.97
2019-03-27T12:37:49.402Z,29.85
2019-03-27T12:40:20.117Z,30.07
2019-03-27T12:42:50.960Z,29.34
2019-03-27T12:45:21.672Z,29.10
2019-03-27T12:47:52.866Z,28.94
2019-03-27T12:50:24.258Z,28.11
2019-03-27T12:52:56.368Z,28.13
2019-03-27T12:55:27.081Z,27.49
2019-03-27T12:57:58.664Z,27.35
2019-03-27T13:00:29.384Z,27.00
2019-03-27T13:03:00.131Z,26.54
2019-03-27T13:05:30.853Z,26.48
2019-03-27T13:08:02.527Z,25.65
2019-03-27T13:10:33.240Z,26.00
2019-03-27T13:13:04.196Z,25.60
2019-03-27T13:15:34.928Z,25.55
2019-03-27T13:18:06.410Z,25.37
2019-03-27T13:20:37.133Z,24.57
2019-03-27T13:23:08.481Z,24.05
2019-03-27T13:25:39.206Z,24.11
2019-03-27T13:28:10.495Z,23.21
2019-03-27T13:30:41.202Z,20.48
2019-03-27T13:33:11.927Z,18.61
2019-03-27T13:35:42.622Z,16.63
2019-03-27T13:38:15.210Z,17.07
2019-03-27T13:40:45.901Z,16.37
2019-03-27T13:43:16.714Z,16.94
2019-03-27T13:45:47.415Z,17.51
2019-03-27T13:48:18.668Z,19.47
2019-03-27T13:50:50.966Z,20.00
2019-03-27T13:53:22.600Z,21.07
2019-03-27T13:55:53.319Z,22.09
2019-03-27T13:58:24.643Z,23.42
2019-03-27T14:00:55.355Z,24.67
2019-03-27T14:03:26.421Z,24.63
2019-03-27T14:05:57.127Z,25.24
2019-03-27T14:08:29.399Z,25.33
2019-03-27T14:11:00.132Z,25.51
2019-03-27T14:13:30.817Z,25.98
2019-03-27T14:16:01.503Z,26.03
2019-03-27T14:18:32.675Z,26.21
2019-03-27T14:21:04.381Z,26.33
2019-03-27T14:23:36.722Z,26.84
2019-03-27T14:26:07.641Z,27.24
2019-03-27T14:28:38.797Z,27.06
2019-03-27T14:31:09.520Z,26.86
2019-03-27T14:33:40.359Z,26.44
2019-03-27T14:36:10.972Z,25.81
2019-03-27T14:38:42.546Z,25.65
2019-03-27T14:41:13.241Z,23.62
2019-03-27T14:43:43.943Z,21.68
2019-03-27T14:46:15.855Z,20.67
2019-03-27T14:48:47.075Z,19.22
2019-03-27T14:51:19.252Z,17.88
2019-03-27T14:53:50.915Z,17.00
2019-03-27T14:56:21.632Z,18.13
2019-03-27T14:58:52.741Z,16.82
2019-03-27T15:01:23.430Z,16.56
2019-03-27T15:03:54.170Z,16.29
2019-03-27T15:06:24.894Z,15.90
2019-03-27T15:08:57.038Z,15.30
2019-03-27T15:11:27.728Z,15.11
2019-03-27T15:13:58.451Z,15.28
2019-03-27T15:16:29.176Z,15.45
2019-03-27T15:19:00.324Z,15.39
2019-03-27T15:21:31.021Z,15.56
2019-03-27T15:24:02.192Z,15.79
2019-03-27T15:26:32.876Z,16.28
2019-03-27T15:29:04.062Z,17.29
2019-03-27T15:31:34.799Z,17.93
2019-03-27T15:34:05.501Z,18.51
2019-03-27T15:36:36.206Z,19.54
2019-03-27T15:39:10.262Z,20.21
2019-03-27T15:41:41.030Z,20.43
2019-03-27T15:44:11.798Z,21.11
2019-03-27T15:46:42.511Z,21.46
2019-03-27T15:49:13.996Z,22.04
2019-03-27T15:51:46.318Z,22.51
2019-03-27T15:54:18.041Z,22.59
2019-03-27T15:56:48.746Z,23.10
2019-03-27T15:59:19.954Z,23.42
2019-03-27T16:01:50.654Z,23.77
2019-03-27T16:04:21.719Z,23.96
2019-03-27T16:06:52.466Z,24.00
2019-03-27T16:09:24.201Z,24.89
2019-03-27T16:11:54.921Z,24.75
2019-03-27T16:14:25.638Z,25.42
2019-03-27T16:17:12.292Z,25.11
2019-03-27T16:19:29.322Z,25.27
2019-03-27T16:22:00.068Z,25.70
2019-03-27T16:24:32.604Z,26.11
2019-03-27T16:27:04.848Z,26.01
2019-03-27T16:29:37.244Z,26.68
2019-03-27T16:32:08.034Z,26.82
2019-03-27T16:34:38.852Z,27.03
2019-03-27T16:37:09.590Z,27.57
2019-03-27T16:39:42.213Z,27.55
2019-03-27T16:42:12.951Z,27.60
2019-03-27T16:44:43.698Z,27.71
2019-03-27T16:47:14.415Z,28.09
2019-03-27T16:49:45.746Z,28.11
2019-03-27T16:52:18.470Z,28.27
2019-03-27T16:54:50.885Z,28.20
2019-03-27T16:57:21.619Z,29.44
2019-03-27T16:59:53.185Z,28.99
2019-03-27T17:02:23.894Z,28.96
2019-03-27T17:04:54.642Z,29.28
2019-03-27T17:07:25.402Z,29.55
2019-03-27T17:09:57.842Z,29.69
2019-03-27T17:12:31.359Z,29.80
2019-03-27T17:15:01.069Z,29.55
2019-03-27T17:17:31.801Z,29.86
2019-03-27T17:20:03.021Z,29.52
2019-03-27T17:22:33.731Z,29.48
2019-03-27T17:25:05.176Z,29.56
2019-03-27T17:27:35.905Z,30.21
2019-03-27T17:30:08.317Z,30.05
2019-03-27T17:32:39.024Z,30.76
2019-03-27T17:35:09.757Z,30.54
2019-03-27T17:37:40.464Z,30.81
2019-03-27T17:40:13.510Z,30.62
2019-03-27T17:42:44.246Z,31.03
2019-03-27T17:45:14.975Z,31.21
2019-03-27T17:47:45.736Z,30.97
2019-03-27T17:50:16.904Z,31.38
2019-03-27T17:52:48.391Z,31.07
2019-03-27T17:55:20.458Z,31.28
2019-03-27T17:57:51.181Z,31.15
2019-03-27T18:00:52.890Z,31.95
2019-03-27T18:03:23.550Z,31.37
2019-03-27T18:05:54.623Z,31.25
2019-03-27T18:08:25.342Z,31.50
2019-03-27T18:10:57.095Z,31.79
2019-03-27T18:13:27.821Z,31.35
2019-03-27T18:15:58.563Z,31.93
2019-03-27T18:18:29.291Z,31.84
2019-03-27T18:21:00.469Z,31.98
2019-03-27T18:23:44.801Z,32.10
2019-03-27T18:26:04.300Z,32.34
2019-03-27T18:28:34.998Z,32.46
2019-03-27T18:31:06.266Z,32.87
2019-03-27T18:33:36.947Z,32.69
2019-03-27T18:36:08.107Z,32.71
2019-03-27T18:38:38.807Z,33.04
2019-03-27T18:41:10.662Z,33.50
2019-03-27T18:43:41.380Z,33.09
2019-03-27T18:46:12.231Z,33.02
2019-03-27T18:48:42.994Z,33.08
2019-03-27T18:51:14.290Z,33.51
2019-03-27T18:53:58.482Z,33.63
2019-03-27T18:56:19.172Z,33.70
2019-03-27T18:58:49.912Z,33.71
2019-03-27T19:01:21.155Z,33.61
2019-03-27T19:03:51.935Z,33.85
2019-03-27T19:06:22.699Z,33.53
2019-03-27T19:08:53.428Z,33.45
2019-03-27T19:11:26.055Z,34.15
2019-03-27T19:13:56.764Z,33.71
2019-03-27T19:16:27.698Z,33.49
2019-03-27T19:18:58.402Z,33.89
2019-03-27T19:21:29.727Z,33.83
2019-03-27T19:24:13.327Z,33.90
2019-03-27T19:26:33.698Z,34.09
2019-03-27T19:29:04.434Z,33.74
2019-03-27T19:31:35.697Z,33.85
2019-03-27T19:34:06.434Z,34.04
2019-03-27T19:36:37.592Z,33.87
2019-03-27T19:39:09.013Z,33.89
2019-03-27T19:41:40.296Z,34.03
2019-03-27T19:44:11.038Z,34.04
2019-03-27T19:46:41.875Z,33.74
2019-03-27T19:49:12.589Z,33.87
2019-03-27T19:51:43.875Z,33.84
2019-03-27T19:54:26.633Z,34.42
2019-03-27T19:56:48.606Z,34.05
2019-03-27T19:59:19.309Z,34.17
2019-03-27T20:01:50.685Z,34.21
2019-03-27T20:04:21.960Z,34.39
2019-03-27T20:06:53.086Z,34.28
2019-03-27T20:09:23.824Z,34.39
2019-03-27T20:11:56.402Z,34.13
2019-03-27T20:14:27.151Z,34.21
2019-03-27T20:16:57.962Z,34.13
2019-03-27T20:19:28.685Z,34.09
2019-03-27T20:21:59.957Z,34.37
2019-03-27T20:24:40.383Z,34.15
2019-03-27T20:27:04.183Z,34.42
2019-03-27T20:29:35.013Z,34.36
2019-03-27T20:34:41.977Z,34.34
2019-03-27T20:37:12.864Z,34.51
2019-03-27T20:39:43.602Z,34.43
2019-03-27T20:42:15.462Z,34.36
2019-03-27T20:44:46.638Z,34.30
2019-03-27T20:47:17.350Z,34.40
2019-03-27T20:49:49.359Z,34.45
2019-03-27T20:52:20.432Z,34.40
2019-03-27T20:54:55.279Z,34.37
2019-03-27T20:57:24.793Z,34.26
2019-03-27T20:59:55.550Z,34.51
2019-03-27T21:02:26.243Z,34.44
2019-03-27T21:04:57.816Z,34.66
2019-03-27T21:07:29.092Z,34.48
2019-03-27T21:09:59.897Z,34.52
2019-03-27T21:12:30.638Z,34.58
2019-03-27T21:15:04.144Z,34.81
2019-03-27T21:17:45.243Z,34.98
2019-03-27T21:20:17.079Z,34.69
2019-03-27T21:22:52.285Z,34.64
2019-03-27T21:25:24.655Z,35.06
2019-03-27T21:27:56.386Z,35.03
2019-03-27T21:30:28.896Z,34.94
2019-03-27T21:33:03.739Z,34.77
2019-03-27T21:35:35.858Z,34.58
2019-03-27T21:38:13.778Z,35.50
2019-03-27T21:40:46.310Z,34.95
2019-03-27T21:43:20.621Z,35.01
2019-03-27T21:45:54.275Z,35.06
2019-03-27T21:48:32.542Z,35.01
2019-03-27T21:51:04.385Z,34.90
2019-03-27T21:53:37.289Z,35.16
2019-03-27T21:56:13.007Z,36.30
2019-03-27T21:58:45.075Z,35.98
2019-03-27T22:01:16.119Z,36.08
2019-03-27T22:03:48.734Z,36.26
2019-03-27T22:06:19.966Z,36.37
2019-03-27T22:08:50.770Z,36.27
2019-03-27T22:11:21.517Z,36.47
2019-03-27T22:13:53.283Z,36.43
2019-03-27T22:16:24.484Z,36.35
2019-03-27T22:18:57.426Z,36.59
2019-03-27T22:21:29.743Z,36.29
2019-03-27T22:24:02.609Z,36.27
2019-03-27T22:26:34.138Z,36.40
2019-03-27T22:29:06.265Z,36.73
2019-03-27T22:31:38.996Z,36.52
2019-03-27T22:34:13.323Z,36.89
2019-03-27T22:36:45.024Z,37.13
2019-03-27T22:39:17.048Z,36.94
2019-03-27T22:41:51.551Z,37.02
2019-03-27T22:44:24.262Z,36.95
2019-03-27T22:46:57.131Z,37.38
2019-03-27T22:49:30.075Z,37.33
2019-03-27T22:52:03.433Z,37.01
2019-03-27T22:54:36.047Z,36.81
2019-03-27T22:57:07.472Z,37.23
2019-03-27T22:59:39.206Z,37.05
2019-03-27T23:02:11.419Z,36.85
2019-03-27T23:04:45.844Z,37.27
2019-03-27T23:07:18.481Z,36.91
2019-03-27T23:09:49.958Z,37.35
2019-03-27T23:12:21.999Z,37.04
2019-03-27T23:14:54.362Z,38.14
2019-03-27T23:17:32.825Z,37.70
2019-03-27T23:20:07.114Z,38.50
2019-03-27T23:22:40.954Z,39.36
2019-03-27T23:25:15.546Z,39.34
2019-03-27T23:27:50.773Z,39.05
2019-03-27T23:30:23.469Z,39.25
2019-03-27T23:32:55.507Z,39.40
2019-03-27T23:35:32.415Z,40.02
2019-03-27T23:38:09.446Z,40.01
2019-03-27T23:40:47.537Z,39.88
2019-03-27T23:43:20.734Z,39.54
2019-03-27T23:45:54.041Z,39.64
2019-03-27T23:48:26.624Z,39.62
2019-03-27T23:50:58.879Z,39.98
2019-03-27T23:53:30.667Z,40.91
2019-03-27T23:56:15.871Z,41.09
2019-03-27T23:58:38.137Z,41.28
